sensor_id;sensor_type;location;lat;lon;timestamp;pressure;altitude;pressure_sealevel;temperature;humidity
64095;BME280;50353;51.420;5.682;2022-10-30T00:01:16;101424.59;;;16.46;78.96
64095;BME280;50353;51.420;5.682;2022-10-30T00:03:41;101426.16;;;16.37;78.62
64095;BME280;50353;51.420;5.682;2022-10-30T00:06:06;101427.00;;;16.49;78.22
64095;BME280;50353;51.420;5.682;2022-10-30T00:08:32;101430.16;;;16.43;78.16
64095;BME280;50353;51.420;5.682;2022-10-30T00:11:06;101430.97;;;16.32;78.44
64095;BME280;50353;51.420;5.682;2022-10-30T00:13:33;101422.44;;;16.51;78.05
64095;BME280;50353;51.420;5.682;2022-10-30T00:15:58;101428.88;;;16.25;78.89
64095;BME280;50353;51.420;5.682;2022-10-30T00:18:23;101438.25;;;16.06;79.67
64095;BME280;50353;51.420;5.682;2022-10-30T00:20:49;101437.66;;;16.14;79.22
64095;BME280;50353;51.420;5.682;2022-10-30T00:23:14;101433.44;;;15.87;79.79
64095;BME280;50353;51.420;5.682;2022-10-30T00:25:39;101435.75;;;15.92;79.46
64095;BME280;50353;51.420;5.682;2022-10-30T00:28:05;101432.41;;;16.01;79.26
64095;BME280;50353;51.420;5.682;2022-10-30T00:30:31;101437.09;;;15.97;79.15
64095;BME280;50353;51.420;5.682;2022-10-30T00:32:57;101433.31;;;15.76;80.44
64095;BME280;50353;51.420;5.682;2022-10-30T00:35:22;101439.97;;;15.57;80.85
64095;BME280;50353;51.420;5.682;2022-10-30T00:37:48;101433.88;;;15.68;79.71
64095;BME280;50353;51.420;5.682;2022-10-30T00:40:14;101425.94;;;15.79;79.20
64095;BME280;50353;51.420;5.682;2022-10-30T00:42:40;101431.38;;;15.91;78.98
64095;BME280;50353;51.420;5.682;2022-10-30T00:45:06;101421.16;;;15.71;79.48
64095;BME280;50353;51.420;5.682;2022-10-30T00:47:35;101411.88;;;15.77;79.53
64095;BME280;50353;51.420;5.682;2022-10-30T00:52:33;101423.31;;;15.66;80.75
64095;BME280;50353;51.420;5.682;2022-10-30T00:55:05;101424.00;;;15.57;80.64
64095;BME280;50353;51.420;5.682;2022-10-30T00:57:31;101419.72;;;15.54;80.76
64095;BME280;50353;51.420;5.682;2022-10-30T00:59:58;101416.59;;;15.74;80.00
64095;BME280;50353;51.420;5.682;2022-10-30T01:02:24;101418.28;;;15.75;80.41
64095;BME280;50353;51.420;5.682;2022-10-30T01:04:51;101415.94;;;15.70;80.11
64095;BME280;50353;51.420;5.682;2022-10-30T01:07:18;101417.47;;;15.61;80.13
64095;BME280;50353;51.420;5.682;2022-10-30T01:09:44;101414.94;;;15.47;81.12
64095;BME280;50353;51.420;5.682;2022-10-30T01:12:10;101416.28;;;15.65;80.42
64095;BME280;50353;51.420;5.682;2022-10-30T01:14:38;101406.31;;;15.43;80.75
64095;BME280;50353;51.420;5.682;2022-10-30T01:20:05;101407.34;;;15.16;81.95
64095;BME280;50353;51.420;5.682;2022-10-30T01:28:09;101417.44;;;15.24;82.27
64095;BME280;50353;51.420;5.682;2022-10-30T01:36:20;101426.41;;;15.23;81.00
64095;BME280;50353;51.420;5.682;2022-10-30T01:38:58;101433.53;;;15.23;81.18
64095;BME280;50353;51.420;5.682;2022-10-30T01:41:26;101439.59;;;15.25;80.72
64095;BME280;50353;51.420;5.682;2022-10-30T01:43:54;101426.09;;;15.15;81.56
64095;BME280;50353;51.420;5.682;2022-10-30T01:46:30;101431.63;;;14.99;82.09
64095;BME280;50353;51.420;5.682;2022-10-30T01:51:56;101435.03;;;14.75;82.08
64095;BME280;50353;51.420;5.682;2022-10-30T01:55:03;101440.69;;;14.83;81.69
64095;BME280;50353;51.420;5.682;2022-10-30T02:00:03;101427.56;;;14.80;81.57
64095;BME280;50353;51.420;5.682;2022-10-30T02:02:29;101427.66;;;14.79;82.12
64095;BME280;50353;51.420;5.682;2022-10-30T02:04:55;101428.41;;;14.94;81.39
64095;BME280;50353;51.420;5.682;2022-10-30T02:07:21;101426.72;;;14.80;81.68
64095;BME280;50353;51.420;5.682;2022-10-30T02:09:47;101425.03;;;14.92;81.59
64095;BME280;50353;51.420;5.682;2022-10-30T02:12:14;101427.13;;;14.99;81.77
64095;BME280;50353;51.420;5.682;2022-10-30T02:14:42;101438.00;;;14.96;81.18
64095;BME280;50353;51.420;5.682;2022-10-30T02:17:09;101435.13;;;14.86;81.37
64095;BME280;50353;51.420;5.682;2022-10-30T02:19:35;101434.50;;;14.96;80.43
64095;BME280;50353;51.420;5.682;2022-10-30T02:22:02;101434.19;;;14.87;81.05
64095;BME280;50353;51.420;5.682;2022-10-30T02:24:28;101440.97;;;14.66;81.77
64095;BME280;50353;51.420;5.682;2022-10-30T02:26:53;101441.94;;;14.91;82.02
64095;BME280;50353;51.420;5.682;2022-10-30T02:29:19;101443.75;;;14.77;81.48
64095;BME280;50353;51.420;5.682;2022-10-30T02:31:46;101445.47;;;14.78;82.07
64095;BME280;50353;51.420;5.682;2022-10-30T02:34:11;101445.13;;;14.70;82.55
64095;BME280;50353;51.420;5.682;2022-10-30T02:36:36;101445.25;;;14.68;82.00
64095;BME280;50353;51.420;5.682;2022-10-30T02:39:02;101437.03;;;14.84;81.71
64095;BME280;50353;51.420;5.682;2022-10-30T02:41:27;101449.69;;;14.68;83.33
64095;BME280;50353;51.420;5.682;2022-10-30T02:43:53;101444.91;;;14.73;83.43
64095;BME280;50353;51.420;5.682;2022-10-30T02:46:18;101449.44;;;14.58;84.29
64095;BME280;50353;51.420;5.682;2022-10-30T02:48:44;101444.13;;;14.58;84.19
64095;BME280;50353;51.420;5.682;2022-10-30T02:51:09;101443.38;;;14.56;83.96
64095;BME280;50353;51.420;5.682;2022-10-30T02:53:34;101449.00;;;14.51;83.90
64095;BME280;50353;51.420;5.682;2022-10-30T02:56:04;101441.72;;;14.28;86.54
64095;BME280;50353;51.420;5.682;2022-10-30T02:58:30;101451.41;;;14.69;83.51
64095;BME280;50353;51.420;5.682;2022-10-30T03:00:55;101446.47;;;14.23;84.54
64095;BME280;50353;51.420;5.682;2022-10-30T03:03:20;101452.69;;;14.36;83.97
64095;BME280;50353;51.420;5.682;2022-10-30T03:05:45;101454.03;;;14.29;84.91
64095;BME280;50353;51.420;5.682;2022-10-30T03:08:11;101449.16;;;14.35;84.77
64095;BME280;50353;51.420;5.682;2022-10-30T03:10:36;101455.69;;;14.44;84.56
64095;BME280;50353;51.420;5.682;2022-10-30T03:13:01;101451.47;;;14.27;84.37
64095;BME280;50353;51.420;5.682;2022-10-30T03:15:27;101455.56;;;14.33;84.10
64095;BME280;50353;51.420;5.682;2022-10-30T03:17:52;101451.28;;;14.30;84.00
64095;BME280;50353;51.420;5.682;2022-10-30T03:20:18;101453.19;;;14.28;83.28
64095;BME280;50353;51.420;5.682;2022-10-30T03:22:43;101450.06;;;14.22;83.72
64095;BME280;50353;51.420;5.682;2022-10-30T03:25:08;101460.97;;;14.04;84.73
64095;BME280;50353;51.420;5.682;2022-10-30T03:27:34;101461.81;;;14.05;84.62
64095;BME280;50353;51.420;5.682;2022-10-30T03:29:59;101456.66;;;13.89;84.50
64095;BME280;50353;51.420;5.682;2022-10-30T03:32:25;101448.41;;;13.79;85.03
64095;BME280;50353;51.420;5.682;2022-10-30T03:34:50;101446.03;;;13.74;86.93
64095;BME280;50353;51.420;5.682;2022-10-30T03:37:15;101446.50;;;13.81;85.76
64095;BME280;50353;51.420;5.682;2022-10-30T03:39:40;101453.28;;;13.99;85.05
64095;BME280;50353;51.420;5.682;2022-10-30T03:42:06;101445.88;;;14.05;84.34
64095;BME280;50353;51.420;5.682;2022-10-30T03:44:31;101451.69;;;13.82;85.44
64095;BME280;50353;51.420;5.682;2022-10-30T03:46:56;101457.81;;;14.12;85.43
64095;BME280;50353;51.420;5.682;2022-10-30T03:49:22;101449.94;;;14.10;85.01
64095;BME280;50353;51.420;5.682;2022-10-30T03:51:47;101448.28;;;13.95;85.20
64095;BME280;50353;51.420;5.682;2022-10-30T03:54:13;101448.63;;;14.03;85.61
64095;BME280;50353;51.420;5.682;2022-10-30T03:56:38;101446.50;;;14.08;85.03
64095;BME280;50353;51.420;5.682;2022-10-30T03:59:03;101450.22;;;14.06;86.04
64095;BME280;50353;51.420;5.682;2022-10-30T04:01:28;101432.47;;;14.06;86.16
64095;BME280;50353;51.420;5.682;2022-10-30T04:03:54;101441.75;;;14.13;84.98
64095;BME280;50353;51.420;5.682;2022-10-30T04:06:19;101451.47;;;14.27;84.82
64095;BME280;50353;51.420;5.682;2022-10-30T04:08:44;101450.41;;;14.30;83.73
64095;BME280;50353;51.420;5.682;2022-10-30T04:11:09;101449.16;;;14.08;84.83
64095;BME280;50353;51.420;5.682;2022-10-30T04:13:35;101441.41;;;14.05;84.43
64095;BME280;50353;51.420;5.682;2022-10-30T04:16:00;101446.22;;;14.13;85.81
64095;BME280;50353;51.420;5.682;2022-10-30T04:18:25;101437.03;;;14.04;86.26
64095;BME280;50353;51.420;5.682;2022-10-30T04:20:51;101441.25;;;13.94;87.65
64095;BME280;50353;51.420;5.682;2022-10-30T04:23:18;101430.66;;;13.79;88.23
64095;BME280;50353;51.420;5.682;2022-10-30T04:25:45;101433.22;;;13.81;88.74
64095;BME280;50353;51.420;5.682;2022-10-30T04:28:11;101431.91;;;14.01;88.11
64095;BME280;50353;51.420;5.682;2022-10-30T04:30:37;101441.00;;;14.11;86.85
64095;BME280;50353;51.420;5.682;2022-10-30T04:33:05;101444.97;;;13.91;87.25
64095;BME280;50353;51.420;5.682;2022-10-30T04:35:32;101440.69;;;13.89;86.95
64095;BME280;50353;51.420;5.682;2022-10-30T04:37:59;101435.59;;;13.85;87.18
64095;BME280;50353;51.420;5.682;2022-10-30T04:40:30;101438.16;;;13.87;87.22
64095;BME280;50353;51.420;5.682;2022-10-30T04:42:56;101459.09;;;14.19;85.37
64095;BME280;50353;51.420;5.682;2022-10-30T04:45:22;101439.06;;;14.00;86.29
64095;BME280;50353;51.420;5.682;2022-10-30T04:47:48;101439.06;;;14.00;85.92
64095;BME280;50353;51.420;5.682;2022-10-30T04:50:13;101442.06;;;14.09;85.57
64095;BME280;50353;51.420;5.682;2022-10-30T04:52:39;101444.38;;;14.00;85.86
64095;BME280;50353;51.420;5.682;2022-10-30T04:55:05;101442.91;;;14.09;85.13
64095;BME280;50353;51.420;5.682;2022-10-30T04:57:31;101442.16;;;14.07;84.91
64095;BME280;50353;51.420;5.682;2022-10-30T04:59:57;101438.94;;;13.75;87.38
64095;BME280;50353;51.420;5.682;2022-10-30T05:02:23;101443.25;;;13.90;87.68
64095;BME280;50353;51.420;5.682;2022-10-30T05:04:48;101435.06;;;13.93;87.56
64095;BME280;50353;51.420;5.682;2022-10-30T05:07:14;101436.88;;;13.93;86.88
64095;BME280;50353;51.420;5.682;2022-10-30T05:09:40;101445.97;;;14.03;86.87
64095;BME280;50353;51.420;5.682;2022-10-30T05:12:05;101436.69;;;13.96;86.95
64095;BME280;50353;51.420;5.682;2022-10-30T05:14:31;101435.41;;;13.74;87.86
64095;BME280;50353;51.420;5.682;2022-10-30T05:16:57;101435.34;;;13.76;87.86
64095;BME280;50353;51.420;5.682;2022-10-30T05:19:22;101426.13;;;13.67;88.77
64095;BME280;50353;51.420;5.682;2022-10-30T05:21:48;101431.38;;;13.54;88.81
64095;BME280;50353;51.420;5.682;2022-10-30T05:24:13;101426.38;;;13.77;87.82
64095;BME280;50353;51.420;5.682;2022-10-30T05:26:38;101426.22;;;13.80;87.27
64095;BME280;50353;51.420;5.682;2022-10-30T05:29:04;101421.03;;;13.64;88.24
64095;BME280;50353;51.420;5.682;2022-10-30T05:31:29;101418.00;;;13.27;89.81
64095;BME280;50353;51.420;5.682;2022-10-30T05:33:54;101420.66;;;13.27;89.30
64095;BME280;50353;51.420;5.682;2022-10-30T05:36:20;101418.94;;;12.97;89.03
64095;BME280;50353;51.420;5.682;2022-10-30T05:38:45;101417.59;;;12.90;90.18
64095;BME280;50353;51.420;5.682;2022-10-30T05:41:11;101416.28;;;12.97;90.01
64095;BME280;50353;51.420;5.682;2022-10-30T05:43:36;101419.91;;;13.10;89.89
64095;BME280;50353;51.420;5.682;2022-10-30T05:46:02;101423.78;;;13.33;87.90
64095;BME280;50353;51.420;5.682;2022-10-30T05:48:27;101426.06;;;13.40;87.58
64095;BME280;50353;51.420;5.682;2022-10-30T05:50:57;101420.50;;;13.44;86.69
64095;BME280;50353;51.420;5.682;2022-10-30T05:53:22;101421.97;;;13.19;89.04
64095;BME280;50353;51.420;5.682;2022-10-30T05:55:48;101433.94;;;13.27;86.37
64095;BME280;50353;51.420;5.682;2022-10-30T05:58:14;101430.31;;;13.13;86.33
64095;BME280;50353;51.420;5.682;2022-10-30T06:00:39;101422.53;;;12.96;87.25
64095;BME280;50353;51.420;5.682;2022-10-30T06:03:06;101420.28;;;13.04;89.36
64095;BME280;50353;51.420;5.682;2022-10-30T06:05:35;101412.28;;;12.90;89.35
64095;BME280;50353;51.420;5.682;2022-10-30T06:08:01;101423.41;;;13.11;87.49
64095;BME280;50353;51.420;5.682;2022-10-30T06:10:27;101422.94;;;13.18;86.83
64095;BME280;50353;51.420;5.682;2022-10-30T06:12:58;101428.63;;;12.98;87.49
64095;BME280;50353;51.420;5.682;2022-10-30T06:15:24;101436.16;;;12.90;85.94
64095;BME280;50353;51.420;5.682;2022-10-30T06:17:50;101434.47;;;13.03;85.12
64095;BME280;50353;51.420;5.682;2022-10-30T06:20:17;101428.59;;;12.83;85.71
64095;BME280;50353;51.420;5.682;2022-10-30T06:23:04;101420.16;;;12.77;87.17
64095;BME280;50353;51.420;5.682;2022-10-30T06:25:31;101431.69;;;12.61;86.54
64095;BME280;50353;51.420;5.682;2022-10-30T06:27:57;101423.56;;;12.79;87.15
64095;BME280;50353;51.420;5.682;2022-10-30T06:30:24;101427.66;;;12.99;85.73
64095;BME280;50353;51.420;5.682;2022-10-30T06:32:49;101431.25;;;12.83;85.51
64095;BME280;50353;51.420;5.682;2022-10-30T06:35:15;101419.94;;;12.65;86.89
64095;BME280;50353;51.420;5.682;2022-10-30T06:37:47;101428.00;;;12.78;87.49
64095;BME280;50353;51.420;5.682;2022-10-30T06:40:12;101435.63;;;12.84;86.27
64095;BME280;50353;51.420;5.682;2022-10-30T06:42:44;101422.81;;;12.77;86.00
64095;BME280;50353;51.420;5.682;2022-10-30T06:45:11;101427.22;;;12.62;85.63
64095;BME280;50353;51.420;5.682;2022-10-30T06:47:36;101421.22;;;12.44;85.90
64095;BME280;50353;51.420;5.682;2022-10-30T06:50:05;101426.41;;;12.45;88.65
64095;BME280;50353;51.420;5.682;2022-10-30T06:52:31;101419.06;;;12.50;87.55
64095;BME280;50353;51.420;5.682;2022-10-30T06:54:56;101416.06;;;12.71;87.36
64095;BME280;50353;51.420;5.682;2022-10-30T06:57:22;101419.06;;;12.50;87.97
64095;BME280;50353;51.420;5.682;2022-10-30T06:59:47;101416.44;;;12.34;89.43
64095;BME280;50353;51.420;5.682;2022-10-30T07:02:12;101416.41;;;12.65;88.22
64095;BME280;50353;51.420;5.682;2022-10-30T07:04:37;101408.75;;;12.60;87.45
64095;BME280;50353;51.420;5.682;2022-10-30T07:07:03;101404.56;;;12.56;86.82
64095;BME280;50353;51.420;5.682;2022-10-30T07:09:28;101412.03;;;12.49;88.62
64095;BME280;50353;51.420;5.682;2022-10-30T07:11:54;101409.25;;;12.67;88.42
64095;BME280;50353;51.420;5.682;2022-10-30T07:14:19;101413.13;;;12.76;87.79
64095;BME280;50353;51.420;5.682;2022-10-30T07:16:44;101408.31;;;12.82;87.84
64095;BME280;50353;51.420;5.682;2022-10-30T07:19:09;101414.56;;;12.96;87.12
64095;BME280;50353;51.420;5.682;2022-10-30T07:21:35;101418.75;;;13.00;86.72
64095;BME280;50353;51.420;5.682;2022-10-30T07:24:00;101412.97;;;12.79;88.80
64095;BME280;50353;51.420;5.682;2022-10-30T07:26:25;101417.16;;;12.52;90.68
64095;BME280;50353;51.420;5.682;2022-10-30T07:28:51;101413.22;;;12.74;90.11
64095;BME280;50353;51.420;5.682;2022-10-30T07:31:16;101427.38;;;13.04;88.68
64095;BME280;50353;51.420;5.682;2022-10-30T07:33:41;101422.09;;;13.04;88.89
64095;BME280;50353;51.420;5.682;2022-10-30T07:36:07;101427.28;;;13.19;88.78
64095;BME280;50353;51.420;5.682;2022-10-30T07:38:32;101420.19;;;13.20;89.65
64095;BME280;50353;51.420;5.682;2022-10-30T07:40:58;101418.78;;;13.14;90.71
64095;BME280;50353;51.420;5.682;2022-10-30T07:43:23;101413.81;;;13.08;92.36
64095;BME280;50353;51.420;5.682;2022-10-30T07:45:48;101408.91;;;13.16;92.29
64095;BME280;50353;51.420;5.682;2022-10-30T07:48:13;101410.03;;;13.27;92.62
64095;BME280;50353;51.420;5.682;2022-10-30T07:50:39;101412.31;;;13.47;91.34
64095;BME280;50353;51.420;5.682;2022-10-30T07:53:04;101415.03;;;13.60;91.33
64095;BME280;50353;51.420;5.682;2022-10-30T07:55:29;101418.81;;;13.71;91.82
64095;BME280;50353;51.420;5.682;2022-10-30T07:57:55;101420.28;;;13.89;90.78
64095;BME280;50353;51.420;5.682;2022-10-30T08:00:21;101413.72;;;13.95;90.18
64095;BME280;50353;51.420;5.682;2022-10-30T08:02:50;101403.44;;;14.03;91.23
64095;BME280;50353;51.420;5.682;2022-10-30T08:05:16;101406.94;;;14.03;91.50
64095;BME280;50353;51.420;5.682;2022-10-30T08:07:41;101406.56;;;14.10;91.69
64095;BME280;50353;51.420;5.682;2022-10-30T08:10:09;101403.91;;;14.23;90.29
64095;BME280;50353;51.420;5.682;2022-10-30T08:12:35;101406.75;;;14.07;93.28
64095;BME280;50353;51.420;5.682;2022-10-30T08:15:01;101408.47;;;14.20;92.00
64095;BME280;50353;51.420;5.682;2022-10-30T08:17:26;101408.19;;;14.25;91.52
64095;BME280;50353;51.420;5.682;2022-10-30T08:19:52;101404.13;;;14.19;93.23
64095;BME280;50353;51.420;5.682;2022-10-30T08:22:17;101411.28;;;14.32;91.59
64095;BME280;50353;51.420;5.682;2022-10-30T08:24:43;101416.53;;;14.46;90.22
64095;BME280;50353;51.420;5.682;2022-10-30T08:27:09;101407.72;;;14.59;90.42
64095;BME280;50353;51.420;5.682;2022-10-30T08:29:34;101402.81;;;14.52;90.70
64095;BME280;50353;51.420;5.682;2022-10-30T08:31:59;101398.16;;;14.56;92.72
64095;BME280;50353;51.420;5.682;2022-10-30T08:34:25;101402.19;;;14.62;91.53
64095;BME280;50353;51.420;5.682;2022-10-30T08:36:55;101402.66;;;14.68;91.29
64095;BME280;50353;51.420;5.682;2022-10-30T08:39:21;101397.00;;;14.73;90.67
64095;BME280;50353;51.420;5.682;2022-10-30T08:41:46;101400.84;;;14.82;90.93
64095;BME280;50353;51.420;5.682;2022-10-30T08:44:12;101399.38;;;14.91;89.93
64095;BME280;50353;51.420;5.682;2022-10-30T08:46:37;101410.09;;;15.02;88.83
64095;BME280;50353;51.420;5.682;2022-10-30T08:49:03;101416.31;;;15.02;89.98
64095;BME280;50353;51.420;5.682;2022-10-30T08:51:31;101407.13;;;15.07;89.50
64095;BME280;50353;51.420;5.682;2022-10-30T08:53:57;101402.31;;;15.12;89.96
64095;BME280;50353;51.420;5.682;2022-10-30T08:56:22;101403.03;;;15.27;88.66
64095;BME280;50353;51.420;5.682;2022-10-30T08:58:49;101406.47;;;15.29;88.72
64095;BME280;50353;51.420;5.682;2022-10-30T09:01:15;101394.94;;;15.41;87.80
64095;BME280;50353;51.420;5.682;2022-10-30T09:03:40;101405.34;;;15.44;87.94
64095;BME280;50353;51.420;5.682;2022-10-30T09:06:07;101408.31;;;15.52;87.19
64095;BME280;50353;51.420;5.682;2022-10-30T09:08:32;101410.88;;;15.54;88.03
64095;BME280;50353;51.420;5.682;2022-10-30T09:10:57;101403.50;;;15.58;86.68
64095;BME280;50353;51.420;5.682;2022-10-30T09:13:24;101403.41;;;15.59;86.04
64095;BME280;50353;51.420;5.682;2022-10-30T09:15:50;101401.66;;;15.71;85.26
64095;BME280;50353;51.420;5.682;2022-10-30T09:18:15;101409.66;;;15.71;87.12
64095;BME280;50353;51.420;5.682;2022-10-30T09:20:41;101413.50;;;15.80;85.34
64095;BME280;50353;51.420;5.682;2022-10-30T09:23:06;101410.31;;;15.99;84.49
64095;BME280;50353;51.420;5.682;2022-10-30T09:25:31;101417.88;;;16.05;83.49
64095;BME280;50353;51.420;5.682;2022-10-30T09:27:57;101403.63;;;16.17;83.87
64095;BME280;50353;51.420;5.682;2022-10-30T09:30:22;101398.44;;;16.27;85.54
64095;BME280;50353;51.420;5.682;2022-10-30T09:32:56;101393.13;;;16.38;84.41
64095;BME280;50353;51.420;5.682;2022-10-30T09:35:22;101386.16;;;16.60;84.41
64095;BME280;50353;51.420;5.682;2022-10-30T09:37:48;101381.69;;;16.61;84.64
64095;BME280;50353;51.420;5.682;2022-10-30T09:40:59;101391.88;;;16.78;83.71
64095;BME280;50353;51.420;5.682;2022-10-30T09:43:34;101386.53;;;16.78;83.51
64095;BME280;50353;51.420;5.682;2022-10-30T09:46:06;101386.84;;;16.98;83.05
64095;BME280;50353;51.420;5.682;2022-10-30T09:54:45;101391.94;;;17.35;80.03
64095;BME280;50353;51.420;5.682;2022-10-30T10:00:07;101401.75;;;17.57;79.42
64095;BME280;50353;51.420;5.682;2022-10-30T10:02:37;101412.25;;;17.81;80.34
64095;BME280;50353;51.420;5.682;2022-10-30T10:05:20;101413.97;;;17.82;77.80
64095;BME280;50353;51.420;5.682;2022-10-30T10:07:49;101413.50;;;17.77;78.18
64095;BME280;50353;51.420;5.682;2022-10-30T10:10:42;101423.50;;;18.19;78.84
64095;BME280;50353;51.420;5.682;2022-10-30T10:13:21;101413.97;;;18.26;77.70
64095;BME280;50353;51.420;5.682;2022-10-30T10:15:51;101410.94;;;18.19;78.23
64095;BME280;50353;51.420;5.682;2022-10-30T10:18:24;101416.72;;;18.36;76.61
64095;BME280;50353;51.420;5.682;2022-10-30T10:20:52;101402.63;;;18.34;75.13
64095;BME280;50353;51.420;5.682;2022-10-30T10:23:30;101404.97;;;18.48;76.43
64095;BME280;50353;51.420;5.682;2022-10-30T10:25:59;101397.63;;;18.29;77.57
64095;BME280;50353;51.420;5.682;2022-10-30T10:28:51;101397.06;;;18.47;75.96
64095;BME280;50353;51.420;5.682;2022-10-30T10:31:29;101391.63;;;18.79;74.90
64095;BME280;50353;51.420;5.682;2022-10-30T10:34:01;101391.38;;;18.82;74.53
64095;BME280;50353;51.420;5.682;2022-10-30T10:36:40;101380.16;;;18.88;74.14
64095;BME280;50353;51.420;5.682;2022-10-30T10:39:15;101388.09;;;19.00;72.87
64095;BME280;50353;51.420;5.682;2022-10-30T10:42:11;101388.28;;;18.87;72.93
64095;BME280;50353;51.420;5.682;2022-10-30T10:44:48;101388.91;;;18.90;74.55
64095;BME280;50353;51.420;5.682;2022-10-30T10:47:35;101381.75;;;19.01;72.93
64095;BME280;50353;51.420;5.682;2022-10-30T10:52:52;101396.00;;;19.32;72.08
64095;BME280;50353;51.420;5.682;2022-10-30T10:55:40;101392.78;;;19.48;71.51
64095;BME280;50353;51.420;5.682;2022-10-30T10:58:57;101393.34;;;19.42;71.08
64095;BME280;50353;51.420;5.682;2022-10-30T11:01:23;101389.72;;;19.63;70.14
64095;BME280;50353;51.420;5.682;2022-10-30T11:04:04;101391.50;;;19.52;70.87
64095;BME280;50353;51.420;5.682;2022-10-30T11:06:35;101387.91;;;19.73;69.98
64095;BME280;50353;51.420;5.682;2022-10-30T11:09:15;101382.88;;;19.89;69.96
64095;BME280;50353;51.420;5.682;2022-10-30T11:11:42;101389.22;;;19.88;70.21
64095;BME280;50353;51.420;5.682;2022-10-30T11:14:13;101386.53;;;20.08;69.35
64095;BME280;50353;51.420;5.682;2022-10-30T11:19:24;101390.91;;;20.29;69.02
64095;BME280;50353;51.420;5.682;2022-10-30T11:21:52;101379.88;;;20.22;67.05
64095;BME280;50353;51.420;5.682;2022-10-30T11:24:29;101377.88;;;20.43;67.08
64095;BME280;50353;51.420;5.682;2022-10-30T11:26:56;101378.16;;;20.50;66.54
64095;BME280;50353;51.420;5.682;2022-10-30T11:29:23;101375.75;;;20.47;68.66
64095;BME280;50353;51.420;5.682;2022-10-30T11:32:03;101373.66;;;20.31;67.92
64095;BME280;50353;51.420;5.682;2022-10-30T11:34:34;101378.75;;;20.24;67.81
64095;BME280;50353;51.420;5.682;2022-10-30T11:37:00;101365.19;;;20.36;67.35
64095;BME280;50353;51.420;5.682;2022-10-30T11:39:31;101374.94;;;20.47;67.74
64095;BME280;50353;51.420;5.682;2022-10-30T11:42:05;101366.44;;;20.41;68.57
64095;BME280;50353;51.420;5.682;2022-10-30T11:44:40;101371.28;;;20.18;68.19
64095;BME280;50353;51.420;5.682;2022-10-30T11:47:07;101371.25;;;20.28;68.12
64095;BME280;50353;51.420;5.682;2022-10-30T11:52:05;101369.81;;;20.53;67.24
64095;BME280;50353;51.420;5.682;2022-10-30T11:54:36;101362.03;;;20.70;67.95
64095;BME280;50353;51.420;5.682;2022-10-30T11:57:04;101355.94;;;20.58;68.20
64095;BME280;50353;51.420;5.682;2022-10-30T11:59:35;101365.09;;;20.65;67.88
64095;BME280;50353;51.420;5.682;2022-10-30T12:02:20;101370.06;;;20.80;67.94
64095;BME280;50353;51.420;5.682;2022-10-30T12:04:49;101368.31;;;20.88;67.25
64095;BME280;50353;51.420;5.682;2022-10-30T12:07:19;101363.44;;;20.74;66.33
64095;BME280;50353;51.420;5.682;2022-10-30T12:09:48;101363.72;;;20.71;68.18
64095;BME280;50353;51.420;5.682;2022-10-30T12:12:27;101360.03;;;20.72;68.51
64095;BME280;50353;51.420;5.682;2022-10-30T12:14:53;101361.00;;;20.81;69.95
64095;BME280;50353;51.420;5.682;2022-10-30T12:17:20;101354.16;;;20.96;68.17
64095;BME280;50353;51.420;5.682;2022-10-30T12:19:50;101348.31;;;20.73;68.55
64095;BME280;50353;51.420;5.682;2022-10-30T12:22:31;101344.97;;;20.41;70.22
64095;BME280;50353;51.420;5.682;2022-10-30T12:25:04;101341.16;;;20.34;69.27
64095;BME280;50353;51.420;5.682;2022-10-30T12:27:34;101352.06;;;20.13;70.08
64095;BME280;50353;51.420;5.682;2022-10-30T12:30:06;101347.13;;;19.99;71.47
64095;BME280;50353;51.420;5.682;2022-10-30T12:32:52;101349.50;;;20.21;71.62
64095;BME280;50353;51.420;5.682;2022-10-30T12:35:56;101351.34;;;20.31;70.69
64095;BME280;50353;51.420;5.682;2022-10-30T12:38:33;101337.19;;;20.29;71.19
64095;BME280;50353;51.420;5.682;2022-10-30T12:41:11;101333.34;;;20.41;72.01
64095;BME280;50353;51.420;5.682;2022-10-30T12:43:41;101344.09;;;20.41;72.61
64095;BME280;50353;51.420;5.682;2022-10-30T12:46:32;101340.88;;;20.37;73.47
64095;BME280;50353;51.420;5.682;2022-10-30T12:52:08;101330.72;;;20.21;73.00
64095;BME280;50353;51.420;5.682;2022-10-30T12:57:14;101331.22;;;20.54;71.75
64095;BME280;50353;51.420;5.682;2022-10-30T13:02:56;101334.03;;;20.53;71.34
64095;BME280;50353;51.420;5.682;2022-10-30T13:10:41;101330.06;;;20.76;71.93
64095;BME280;50353;51.420;5.682;2022-10-30T13:13:19;101331.47;;;20.81;70.64
64095;BME280;50353;51.420;5.682;2022-10-30T13:15:49;101330.59;;;20.80;71.60
64095;BME280;50353;51.420;5.682;2022-10-30T13:18:20;101328.63;;;20.82;72.35
64095;BME280;50353;51.420;5.682;2022-10-30T13:21:04;101316.91;;;20.73;71.65
64095;BME280;50353;51.420;5.682;2022-10-30T13:28:51;101319.16;;;20.78;64.10
64095;BME280;50353;51.420;5.682;2022-10-30T13:31:36;101324.63;;;20.86;64.03
64095;BME280;50353;51.420;5.682;2022-10-30T13:37:04;101308.31;;;20.70;63.30
64095;BME280;50353;51.420;5.682;2022-10-30T13:39:59;101328.63;;;20.63;63.21
64095;BME280;50353;51.420;5.682;2022-10-30T13:42:33;101330.47;;;20.62;63.26
64095;BME280;50353;51.420;5.682;2022-10-30T13:45:16;101327.34;;;20.67;62.75
64095;BME280;50353;51.420;5.682;2022-10-30T13:53:44;101332.88;;;20.75;61.69
64095;BME280;50353;51.420;5.682;2022-10-30T13:56:14;101326.56;;;20.56;61.44
64095;BME280;50353;51.420;5.682;2022-10-30T13:59:13;101332.09;;;20.45;63.66
64095;BME280;50353;51.420;5.682;2022-10-30T14:01:55;101332.66;;;20.39;64.47
64095;BME280;50353;51.420;5.682;2022-10-30T14:04:36;101330.16;;;20.18;65.98
64095;BME280;50353;51.420;5.682;2022-10-30T14:07:37;101337.63;;;20.24;65.85